sensor_id;sensor_type;location;lat;lon;timestamp;pressure;altitude;pressure_sealevel;temperature;humidity
7586;BME280;12459;42.646;23.292;2023-02-11T00:03:12;95197.75;;;6.28;77.34
7586;BME280;12459;42.646;23.292;2023-02-11T00:18:14;95201.84;;;6.25;77.54
7586;BME280;12459;42.646;23.292;2023-02-11T00:33:15;95203.28;;;6.23;77.59
7586;BME280;12459;42.646;23.292;2023-02-11T00:48:17;95192.31;;;6.24;77.22
7586;BME280;12459;42.646;23.292;2023-02-11T01:03:18;95174.47;;;6.25;77.31
7586;BME280;12459;42.646;23.292;2023-02-11T01:18:20;95177.78;;;6.22;77.42
7586;BME280;12459;42.646;23.292;2023-02-11T01:33:22;95179.22;;;6.19;77.52
7586;BME280;12459;42.646;23.292;2023-02-11T02:03:25;95155.59;;;6.18;77.20
7586;BME280;12459;42.646;23.292;2023-02-11T02:33:54;95160.81;;;6.14;77.46
7586;BME280;12459;42.646;23.292;2023-02-11T02:49:01;95147.06;;;6.12;77.33
7586;BME280;12459;42.646;23.292;2023-02-11T03:19:12;95161.25;;;6.16;78.49
7586;BME280;12459;42.646;23.292;2023-02-11T03:34:17;95149.50;;;6.17;77.77
7586;BME280;12459;42.646;23.292;2023-02-11T03:49:22;95149.72;;;6.12;77.36
7586;BME280;12459;42.646;23.292;2023-02-11T04:04:28;95153.16;;;6.13;77.43
7586;BME280;12459;42.646;23.292;2023-02-11T04:19:30;95151.63;;;6.12;77.40
7586;BME280;12459;42.646;23.292;2023-02-11T04:34:31;95153.50;;;6.11;77.04
7586;BME280;12459;42.646;23.292;2023-02-11T04:49:33;95136.56;;;6.03;77.65
7586;BME280;12459;42.646;23.292;2023-02-11T05:04:34;95132.44;;;6.06;77.12
7586;BME280;12459;42.646;23.292;2023-02-11T05:19:36;95126.00;;;6.07;77.05
7586;BME280;12459;42.646;23.292;2023-02-11T05:34:37;95131.00;;;6.08;76.96
7586;BME280;12459;42.646;23.292;2023-02-11T05:49:39;95134.00;;;6.07;76.76
7586;BME280;12459;42.646;23.292;2023-02-11T06:04:41;95142.63;;;6.16;76.62
7586;BME280;12459;42.646;23.292;2023-02-11T06:19:43;95144.16;;;6.42;75.57
7586;BME280;12459;42.646;23.292;2023-02-11T06:34:45;95142.09;;;6.63;77.06
7586;BME280;12459;42.646;23.292;2023-02-11T06:49:47;95154.28;;;6.64;74.03
7586;BME280;12459;42.646;23.292;2023-02-11T07:04:48;95159.38;;;6.69;73.32
7586;BME280;12459;42.646;23.292;2023-02-11T07:19:50;95144.69;;;6.75;72.86
7586;BME280;12459;42.646;23.292;2023-02-11T07:34:51;95135.63;;;6.36;72.01
7586;BME280;12459;42.646;23.292;2023-02-11T07:49:53;95115.59;;;6.82;72.83
7586;BME280;12459;42.646;23.292;2023-02-11T08:04:57;95119.88;;;6.87;73.08
7586;BME280;12459;42.646;23.292;2023-02-11T08:19:58;95102.00;;;6.87;73.52
7586;BME280;12459;42.646;23.292;2023-02-11T08:35:00;95116.63;;;6.93;72.99
7586;BME280;12459;42.646;23.292;2023-02-11T08:50:02;95115.59;;;6.98;72.61
7586;BME280;12459;42.646;23.292;2023-02-11T09:05:04;95122.84;;;6.97;72.55
7586;BME280;12459;42.646;23.292;2023-02-11T09:20:05;95107.72;;;7.01;72.26
7586;BME280;12459;42.646;23.292;2023-02-11T09:35:10;95095.50;;;7.00;72.32
7586;BME280;12459;42.646;23.292;2023-02-11T09:50:13;95073.41;;;7.00;71.99
7586;BME280;12459;42.646;23.292;2023-02-11T10:35:25;94980.91;;;7.00;72.61
7586;BME280;12459;42.646;23.292;2023-02-11T10:50:29;94954.34;;;7.04;72.53
7586;BME280;12459;42.646;23.292;2023-02-11T11:05:36;94927.34;;;7.05;72.72
7586;BME280;12459;42.646;23.292;2023-02-11T11:20:56;94911.44;;;7.09;72.51
7586;BME280;12459;42.646;23.292;2023-02-11T11:36:05;94901.13;;;7.08;72.83
7586;BME280;12459;42.646;23.292;2023-02-11T11:51:09;94879.44;;;7.09;72.85
7586;BME280;12459;42.646;23.292;2023-02-11T12:52:46;94810.22;;;7.13;73.23
7586;BME280;12459;42.646;23.292;2023-02-11T13:07:51;94788.63;;;7.18;73.37
7586;BME280;12459;42.646;23.292;2023-02-11T13:38:23;94775.31;;;7.18;73.56
7586;BME280;12459;42.646;23.292;2023-02-11T13:53:26;94757.78;;;7.17;73.52
7586;BME280;12459;42.646;23.292;2023-02-11T14:08:28;94737.56;;;7.16;73.71
7586;BME280;12459;42.646;23.292;2023-02-11T14:23:49;94743.31;;;7.18;73.44
7586;BME280;12459;42.646;23.292;2023-02-11T14:39:01;94731.81;;;7.14;73.77
7586;BME280;12459;42.646;23.292;2023-02-11T14:54:10;94742.13;;;7.15;73.60
7586;BME280;12459;42.646;23.292;2023-02-11T15:09:16;94731.88;;;7.17;73.61
7586;BME280;12459;42.646;23.292;2023-02-11T15:24:28;94706.66;;;7.11;73.48
7586;BME280;12459;42.646;23.292;2023-02-11T15:39:38;94698.22;;;7.09;75.77
7586;BME280;12459;42.646;23.292;2023-02-11T15:54:43;94705.09;;;7.10;74.07
7586;BME280;12459;42.646;23.292;2023-02-11T16:09:46;94704.34;;;7.10;74.54
7586;BME280;12459;42.646;23.292;2023-02-11T16:24:57;94712.75;;;7.12;74.45
7586;BME280;12459;42.646;23.292;2023-02-11T16:40:00;94711.97;;;7.11;74.46
7586;BME280;12459;42.646;23.292;2023-02-11T16:55:02;94715.00;;;7.10;74.46
7586;BME280;12459;42.646;23.292;2023-02-11T17:10:12;94717.66;;;7.10;74.20
7586;BME280;12459;42.646;23.292;2023-02-11T17:25:14;94699.00;;;7.10;73.97
7586;BME280;12459;42.646;23.292;2023-02-11T17:40:15;94714.16;;;7.05;74.23
7586;BME280;12459;42.646;23.292;2023-02-11T17:55:17;94713.38;;;7.05;74.33
7586;BME280;12459;42.646;23.292;2023-02-11T18:10:19;94722.50;;;7.04;74.44
7586;BME280;12459;42.646;23.292;2023-02-11T18:25:20;94718.16;;;6.96;74.76
7586;BME280;12459;42.646;23.292;2023-02-11T18:40:22;94698.66;;;6.92;74.94
7586;BME280;12459;42.646;23.292;2023-02-11T18:55:24;94681.50;;;6.89;75.09
7586;BME280;12459;42.646;23.292;2023-02-11T19:10:26;94674.56;;;6.85;75.16
7586;BME280;12459;42.646;23.292;2023-02-11T19:25:28;94684.16;;;6.89;75.38
7586;BME280;12459;42.646;23.292;2023-02-11T19:40:30;94655.47;;;6.83;74.89
7586;BME280;12459;42.646;23.292;2023-02-11T19:55:33;94650.50;;;6.81;74.96
7586;BME280;12459;42.646;23.292;2023-02-11T20:10:35;94625.53;;;6.89;75.09
7586;BME280;12459;42.646;23.292;2023-02-11T20:25:37;94620.91;;;6.86;75.58
7586;BME280;12459;42.646;23.292;2023-02-11T20:40:39;94614.75;;;6.82;75.89
7586;BME280;12459;42.646;23.292;2023-02-11T20:55:40;94596.53;;;6.84;75.78
7586;BME280;12459;42.646;23.292;2023-02-11T21:10:42;94572.84;;;6.79;75.50
7586;BME280;12459;42.646;23.292;2023-02-11T21:25:44;94529.09;;;6.80;75.20
7586;BME280;12459;42.646;23.292;2023-02-11T21:40:45;94543.97;;;6.81;75.61
7586;BME280;12459;42.646;23.292;2023-02-11T21:55:47;94540.06;;;6.75;75.17
7586;BME280;12459;42.646;23.292;2023-02-11T22:10:51;94532.13;;;6.79;75.11
7586;BME280;12459;42.646;23.292;2023-02-11T22:25:53;94550.34;;;6.77;75.23
7586;BME280;12459;42.646;23.292;2023-02-11T22:40:55;94543.13;;;6.77;75.02
7586;BME280;12459;42.646;23.292;2023-02-11T22:56:00;94546.50;;;6.74;74.94
7586;BME280;12459;42.646;23.292;2023-02-11T23:11:02;94561.34;;;6.75;75.54
7586;BME280;12459;42.646;23.292;2023-02-11T23:26:07;94517.97;;;6.75;75.20
7586;BME280;12459;42.646;23.292;2023-02-11T23:41:09;94503.47;;;6.72;75.83
7586;BME280;12459;42.646;23.292;2023-02-11T23:56:15;94507.69;;;6.73;76.49
